الصفحة الرئيسية
METAR-TAF:

METAR-TAF

مطار :

مطار نيتاجي سوبهاس شاندرا بوس الدولي

كلكتا, الهند

دائرة عرض: 22-39N, خط طول: 088-27E, ارتفاع: 4 متر

مراقبة الطقس الحالي

تاريخ ووقت الإصدار 12ساعات و 27 دقيقة قبل الساعة 05:00UTC
ريح 7 عقدة من الشرق/الجنوب الشرقي
درجة الحرارة 31°درجة مئوية
الرطوبة 84%
ضغط 1001 hPa
الرؤية: 3200 متر
غيوم متفرقة على ارتفاع 1800 قدم
غيوم مفككة على ارتفاع 10000 قدم
العجاج

METAR: VECC 210500Z 12007KT 3200 HZ SCT018 BKN100 31/28 Q1001 NOSIG

زمن: 22:57 (17:27 UTC)

توقعات

تاريخ ووقت الإصدار 15ساعات و 27 دقيقة قبل الساعة 02:00UTC
التوقعات صالحة من21 الساعة 03 UTC إلى 21 الساعة 12 UTC
ريح 7 عقدة من الجنوب/الجنوب الشرقي
الرؤية: 3200 متر
غيوم متفرقة على ارتفاع 1800 قدم
غيوم مفككة على ارتفاع 10000 قدم
مطر خفيف, العجاج
مؤقت
من 21 الساعة 06 UTC إلى 21 الساعة 10 UTC
الرؤية: 1500 متر
غيوم متفرقة على ارتفاع 1500 قدم
غيوم قليلة على ارتفاع 2500 قدم, مزنة ركامية.
ملبد بالغيوم على ارتفاع 9000 قدم
عاصفة رعدية, مطر

TAF: VECC 210200Z 2103/2112 15007KT 3200 -RA HZ SCT018 BKN100 TEMPO 2106/2110 1500 TSRA SCT015 FEW025CB OVC090

أرصاد الطقس والتوقعات من أكثر من 4000 مطار (تقارير الطقس للمطار METAR والتنبؤ بالطقس بالمطارTAF).

المحطات المتاحة هي النقط الصفراء والحمراء على الخريطة.

حرك المؤشر فوق النقطة لمعرفة اسم المحطة.

ثم انقر لمعرفة أرصاد وتوقعات الطقس.

لتغيير الخارطة: اضغط على الأزرار الخضراء مع رمز الصليب الأسود للتكبير. على الزر الأخضر مع شرطة للتصغير، أو على الأسهم الخضراء للخرائط المجاورة.


METAR-TAF: